Time;durP1;ratioP1;P1;durP2;ratioP2;P2;SDS_P1;SDS_P2;PMS_P1;PMS_P2;Temp;Humidity;BMP_temperature;BMP_pressure;BME280_temperature;BME280_humidity;BME280_pressure;Samples;Min_cycle;Max_cycle;Signal;HPM_P1;HPM_P2
2023/03/17 00:01:19;;;;;;;32.40;18.27;;;5.00;98.20;;;;;;5069470;28;20178;-68
2023/03/17 00:03:46;;;;;;;14.60;9.73;;;5.20;99.90;;;;;;5070762;28;20404;-72
2023/03/17 00:06:27;;;;;;;8.43;6.23;;;5.20;99.40;;;;;;5054884;28;20781;-67
2023/03/17 00:08:53;;;;;;;8.50;4.07;;;5.10;99.90;;;;;;5067175;28;20771;-69
2023/03/17 00:11:20;;;;;;;87.10;44.80;;;5.30;99.90;;;;;;5063304;28;20433;-68
2023/03/17 00:13:46;;;;;;;10.60;7.23;;;5.50;99.90;;;;;;5071497;28;20865;-68
2023/03/17 00:16:19;;;;;;;6.20;5.60;;;5.50;99.90;;;;;;5060907;28;20408;-68
2023/03/17 00:18:45;;;;;;;41.07;22.73;;;5.40;99.90;;;;;;5055145;28;20443;-68
2023/03/17 00:21:16;;;;;;;5.20;3.80;;;5.50;99.90;;;;;;5075422;28;20863;-68
2023/03/17 00:23:48;;;;;;;7.10;4.90;;;5.30;99.50;;;;;;5075353;28;20424;-67
2023/03/17 00:26:14;;;;;;;19.10;10.97;;;5.20;99.40;;;;;;5075233;28;20779;-67
2023/03/17 00:28:40;;;;;;;3.90;3.37;;;5.20;99.90;;;;;;5073327;28;20523;-68
2023/03/17 00:31:19;;;;;;;3.97;2.77;;;5.10;99.70;;;;;;5072778;28;20831;-70
2023/03/17 00:33:47;;;;;;;14.97;8.77;;;5.10;99.80;;;;;;5071624;28;20416;-68
2023/03/17 00:36:33;;;;;;;7.80;5.40;;;5.20;99.90;;;;;;5070769;28;20488;-69
2023/03/17 00:38:59;;;;;;;26.67;15.37;;;5.20;99.90;;;;;;5064960;28;20413;-70
2023/03/17 00:41:26;;;;;;;5.83;4.47;;;5.30;99.90;;;;;;5073723;28;20405;-68
2023/03/17 00:43:51;;;;;;;10.60;4.40;;;5.20;99.90;;;;;;5074735;28;20758;-68
2023/03/17 00:46:34;;;;;;;10.17;4.73;;;5.10;99.90;;;;;;5074574;28;20496;-69
2023/03/17 00:49:09;;;;;;;4.30;3.23;;;5.20;99.90;;;;;;5068481;28;20190;-68
2023/03/17 00:51:35;;;;;;;5.30;2.70;;;5.10;99.90;;;;;;5073762;28;20477;-66
2023/03/17 00:54:00;;;;;;;5.67;4.27;;;5.20;99.90;;;;;;5060031;28;20912;-67
2023/03/17 00:56:26;;;;;;;5.07;3.40;;;5.10;99.90;;;;;;5072104;28;20166;-68
2023/03/17 00:58:52;;;;;;;5.17;3.80;;;5.20;99.90;;;;;;5077034;28;20190;-68
2023/03/17 01:01:18;;;;;;;3.83;3.33;;;5.10;99.90;;;;;;5076259;28;20499;-69
2023/03/17 01:03:43;;;;;;;5.60;3.57;;;5.00;99.90;;;;;;5076078;28;20276;-67
2023/03/17 01:06:12;;;;;;;4.10;3.70;;;5.10;99.90;;;;;;5079902;28;20205;-68
2023/03/17 01:08:39;;;;;;;4.63;3.70;;;5.00;99.90;;;;;;5077860;28;20233;-68
2023/03/17 01:11:06;;;;;;;4.87;3.60;;;5.00;99.90;;;;;;5076433;28;20796;-66
2023/03/17 01:13:31;;;;;;;7.60;4.63;;;5.00;99.90;;;;;;5077334;28;20555;-69
2023/03/17 01:15:57;;;;;;;7.67;4.63;;;5.10;99.90;;;;;;5059444;28;20996;-68
2023/03/17 01:18:23;;;;;;;6.57;3.97;;;5.10;99.90;;;;;;5071307;28;20186;-67
2023/03/17 01:20:49;;;;;;;3.13;2.83;;;5.00;99.90;;;;;;5059520;28;20174;-68
2023/03/17 01:23:16;;;;;;;3.77;2.80;;;5.10;99.90;;;;;;5073422;28;20420;-68
2023/03/17 01:25:43;;;;;;;4.27;3.83;;;5.10;99.90;;;;;;5060524;28;20417;-67
2023/03/17 01:28:13;;;;;;;3.70;2.77;;;5.10;99.90;;;;;;5075911;28;20847;-68
2023/03/17 01:30:40;;;;;;;7.57;4.13;;;5.00;99.90;;;;;;5076289;28;20444;-68
2023/03/17 01:33:07;;;;;;;6.50;3.70;;;5.10;99.90;;;;;;5058005;28;20460;-69
2023/03/17 01:35:34;;;;;;;5.50;4.03;;;5.10;99.90;;;;;;5075319;28;20413;-68
2023/03/17 01:38:00;;;;;;;7.73;3.40;;;5.10;99.90;;;;;;5057423;28;20412;-67
2023/03/17 01:40:32;;;;;;;4.97;3.90;;;5.20;99.90;;;;;;5083583;28;20440;-67
2023/03/17 01:43:15;;;;;;;3.20;3.00;;;5.10;99.90;;;;;;5085954;28;20802;-67
2023/03/17 01:46:19;;;;;;;3.37;3.07;;;5.00;99.90;;;;;;5082732;28;20435;-67
2023/03/17 01:48:54;;;;;;;3.67;3.13;;;5.10;99.90;;;;;;5073613;28;20577;-67
2023/03/17 01:52:05;;;;;;;7.43;3.60;;;5.10;99.90;;;;;;5070967;28;20443;-67
2023/03/17 01:54:41;;;;;;;4.43;3.80;;;5.10;99.90;;;;;;5032905;28;20869;-68
2023/03/17 01:57:20;;;;;;;6.30;3.70;;;5.00;99.90;;;;;;5019509;28;20509;-67
2023/03/17 01:59:56;;;;;;;4.40;3.60;;;4.90;99.90;;;;;;5060554;28;20455;-68
2023/03/17 02:02:27;;;;;;;3.83;3.33;;;5.00;99.90;;;;;;5048141;28;20783;-69
2023/03/17 02:04:54;;;;;;;4.43;4.03;;;5.00;99.90;;;;;;5065952;28;20413;-69
2023/03/17 02:07:21;;;;;;;3.03;2.40;;;4.90;99.90;;;;;;5075411;28;20412;-67
2023/03/17 02:09:47;;;;;;;4.50;4.10;;;4.90;99.90;;;;;;5057710;28;20974;-67
2023/03/17 02:12:14;;;;;;;7.63;3.40;;;4.90;99.90;;;;;;5077454;28;20448;-69
2023/03/17 02:14:40;;;;;;;4.50;3.73;;;4.80;99.90;;;;;;5075693;28;20413;-68
2023/03/17 02:17:06;;;;;;;6.17;3.10;;;4.90;99.90;;;;;;5075694;28;20420;-68
2023/03/17 02:19:33;;;;;;;5.90;3.93;;;5.00;99.90;;;;;;5079114;28;20428;-68
2023/03/17 02:21:59;;;;;;;4.67;3.33;;;4.80;99.90;;;;;;5068118;28;20455;-67
2023/03/17 02:24:36;;;;;;;5.07;3.70;;;4.70;99.90;;;;;;5078150;28;20806;-68
2023/03/17 02:27:12;;;;;;;5.10;4.70;;;4.70;99.90;;;;;;5075899;28;20409;-67
2023/03/17 02:29:38;;;;;;;7.97;4.37;;;4.80;99.90;;;;;;5072080;28;20433;-67
2023/03/17 02:32:04;;;;;;;4.67;3.17;;;4.70;99.90;;;;;;5073135;28;20468;-67
2023/03/17 02:34:30;;;;;;;4.33;3.93;;;4.80;99.90;;;;;;5058964;28;20470;-67
2023/03/17 02:36:57;;;;;;;4.13;3.30;;;4.80;99.90;;;;;;5065941;28;20400;-68
2023/03/17 02:39:23;;;;;;;3.50;3.13;;;4.80;99.90;;;;;;5076542;28;20508;-67
2023/03/17 02:41:48;;;;;;;3.77;3.33;;;4.80;99.90;;;;;;5068720;28;20448;-68
2023/03/17 02:44:15;;;;;;;6.90;3.90;;;5.00;99.90;;;;;;5045260;28;20413;-68
2023/03/17 02:46:41;;;;;;;6.93;4.43;;;4.80;99.90;;;;;;5074327;28;20182;-67
2023/03/17 02:49:07;;;;;;;4.60;3.60;;;4.80;99.90;;;;;;5075908;28;20432;-68
2023/03/17 02:51:34;;;;;;;6.40;3.60;;;5.00;99.90;;;;;;5060807;28;20410;-68
2023/03/17 02:54:00;;;;;;;6.70;4.67;;;5.10;99.90;;;;;;5075537;28;20467;-68
2023/03/17 02:56:26;;;;;;;5.80;3.23;;;5.20;99.90;;;;;;5073009;28;20505;-67
2023/03/17 02:58:51;;;;;;;7.00;4.17;;;5.00;99.90;;;;;;5076264;28;20935;-67
2023/03/17 03:01:17;;;;;;;5.27;4.77;;;5.20;99.90;;;;;;5075982;28;20198;-67
2023/03/17 03:03:43;;;;;;;6.70;3.77;;;5.10;99.90;;;;;;5076180;28;20633;-67
2023/03/17 03:06:09;;;;;;;6.13;3.63;;;4.90;99.90;;;;;;5064873;28;20181;-67
2023/03/17 03:08:35;;;;;;;4.63;3.27;;;4.90;99.90;;;;;;5075010;28;20217;-67
2023/03/17 03:11:01;;;;;;;5.63;4.00;;;5.00;99.90;;;;;;5075657;28;20253;-67
2023/03/17 03:13:27;;;;;;;6.87;3.77;;;4.90;99.90;;;;;;5077041;28;20456;-67
2023/03/17 03:15:53;;;;;;;10.60;4.43;;;4.90;99.90;;;;;;5068082;28;20436;-67
2023/03/17 03:18:19;;;;;;;11.30;4.60;;;4.90;99.90;;;;;;5072004;28;20507;-66
2023/03/17 03:20:46;;;;;;;7.20;4.00;;;5.00;99.90;;;;;;5066359;28;20203;-69
2023/03/17 03:23:12;;;;;;;5.60;3.57;;;5.00;99.90;;;;;;5071693;28;20618;-66
2023/03/17 03:25:38;;;;;;;4.10;3.70;;;5.30;99.90;;;;;;5058495;28;20496;-67
2023/03/17 03:28:07;;;;;;;6.93;3.73;;;5.00;99.90;;;;;;5069639;28;20468;-67
2023/03/17 03:30:34;;;;;;;6.13;3.90;;;5.20;99.90;;;;;;5063894;28;20181;-68
2023/03/17 03:33:00;;;;;;;4.70;4.23;;;5.20;99.90;;;;;;5074471;28;21028;-68
2023/03/17 03:35:27;;;;;;;4.17;3.83;;;5.10;99.90;;;;;;5054470;28;20405;-68
2023/03/17 03:37:53;;;;;;;5.80;4.17;;;5.00;99.90;;;;;;5061394;28;20410;-67
2023/03/17 03:40:18;;;;;;;3.93;3.27;;;4.90;99.90;;;;;;5069726;28;20416;-67
2023/03/17 03:42:44;;;;;;;9.60;4.63;;;5.00;99.90;;;;;;5072678;28;20273;-67
2023/03/17 03:45:10;;;;;;;6.80;3.50;;;4.90;99.90;;;;;;5072737;28;20181;-69
2023/03/17 03:47:35;;;;;;;8.73;3.90;;;5.00;99.90;;;;;;5073649;28;20171;-67
2023/03/17 03:50:01;;;;;;;4.00;3.60;;;5.00;99.90;;;;;;5072714;28;20247;-68
2023/03/17 03:52:27;;;;;;;4.00;3.60;;;5.10;99.90;;;;;;5057803;28;20197;-67
2023/03/17 03:54:52;;;;;;;8.97;3.90;;;5.00;99.90;;;;;;5061845;28;20516;-68
2023/03/17 03:57:18;;;;;;;4.03;3.63;;;4.90;99.90;;;;;;5069632;28;20183;-68
2023/03/17 03:59:44;;;;;;;8.57;4.47;;;4.80;99.90;;;;;;5072450;28;20319;-68
2023/03/17 04:02:10;;;;;;;3.60;3.20;;;4.80;99.90;;;;;;5063941;28;20273;-68
2023/03/17 04:04:36;;;;;;;7.63;3.93;;;4.80;99.90;;;;;;5065556;28;20466;-68
2023/03/17 04:07:01;;;;;;;5.97;3.57;;;5.00;99.90;;;;;;5055624;28;20451;-67
2023/03/17 04:09:27;;;;;;;2.87;2.50;;;4.90;99.90;;;;;;5074724;28;20284;-67
2023/03/17 04:11:52;;;;;;;5.10;3.57;;;4.90;99.90;;;;;;5093517;22;20228;-72
2023/03/17 04:14:18;;;;;;;4.40;3.43;;;4.80;99.90;;;;;;5071744;28;20632;-71
2023/03/17 04:16:44;;;;;;;4.10;3.50;;;4.80;99.90;;;;;;5069670;28;20174;-72
2023/03/17 04:19:10;;;;;;;6.93;3.87;;;4.80;99.90;;;;;;5071181;28;20400;-71
2023/03/17 04:21:36;;;;;;;6.50;3.83;;;4.70;99.90;;;;;;5071204;28;20431;-71
2023/03/17 04:24:04;;;;;;;6.60;4.47;;;4.80;99.90;;;;;;5071239;28;20185;-71
2023/03/17 04:26:30;;;;;;;3.57;3.20;;;5.00;99.90;;;;;;5063007;28;20444;-71
2023/03/17 04:28:56;;;;;;;5.30;3.90;;;4.70;99.90;;;;;;5073835;28;20401;-72
2023/03/17 04:31:22;;;;;;;5.00;3.40;;;4.80;99.90;;;;;;5075182;28;20454;-71
2023/03/17 04:33:48;;;;;;;3.40;3.10;;;4.80;99.90;;;;;;5066944;28;20412;-72
2023/03/17 04:36:19;;;;;;;4.67;3.03;;;4.80;99.90;;;;;;5067822;28;20882;-72
2023/03/17 04:38:45;;;;;;;6.47;3.40;;;4.80;99.90;;;;;;5075382;28;20257;-72
2023/03/17 04:41:11;;;;;;;11.47;4.30;;;4.70;99.90;;;;;;5086761;28;20487;-72
2023/03/17 04:43:37;;;;;;;4.70;3.30;;;4.70;99.90;;;;;;5079027;28;20572;-71
2023/03/17 04:46:02;;;;;;;4.43;3.47;;;4.70;99.90;;;;;;5066952;28;20404;-71
2023/03/17 04:48:28;;;;;;;6.27;3.17;;;4.70;99.90;;;;;;5074920;28;20181;-71
2023/03/17 04:50:53;;;;;;;7.67;3.70;;;4.70;99.90;;;;;;5080390;28;20174;-72
2023/03/17 04:53:19;;;;;;;4.37;3.40;;;5.00;99.90;;;;;;5079101;28;20655;-70
2023/03/17 04:55:45;;;;;;;8.77;4.87;;;5.00;99.90;;;;;;5077440;28;20504;-71
2023/03/17 04:58:10;;;;;;;7.93;3.60;;;4.90;99.90;;;;;;5085912;28;20184;-72
2023/03/17 05:00:37;;;;;;;5.93;3.67;;;4.80;99.90;;;;;;5078775;28;20416;-71
2023/03/17 05:03:05;;;;;;;4.53;4.13;;;4.80;99.90;;;;;;5070418;28;20250;-73
2023/03/17 05:05:31;;;;;;;4.97;3.20;;;4.70;99.90;;;;;;5077380;28;20798;-71
2023/03/17 05:07:57;;;;;;;6.63;4.30;;;4.70;99.90;;;;;;5080602;28;20420;-73
2023/03/17 05:10:22;;;;;;;4.10;3.47;;;4.60;99.90;;;;;;5070613;28;20420;-71
2023/03/17 05:12:48;;;;;;;8.03;3.17;;;4.70;99.90;;;;;;5077235;28;20240;-72
2023/03/17 05:15:14;;;;;;;6.20;3.80;;;4.80;99.90;;;;;;5067184;28;20177;-72
2023/03/17 05:17:40;;;;;;;6.43;3.10;;;4.80;99.90;;;;;;5070179;28;20247;-71
2023/03/17 05:20:07;;;;;;;4.33;3.13;;;4.70;99.90;;;;;;5066894;28;20228;-72
2023/03/17 05:22:33;;;;;;;4.93;3.30;;;4.70;99.90;;;;;;5074074;28;20514;-72
2023/03/17 05:24:59;;;;;;;3.70;2.70;;;4.80;99.90;;;;;;5077873;28;20428;-71
2023/03/17 05:27:25;;;;;;;3.67;3.37;;;4.80;99.90;;;;;;5077702;28;20500;-71
2023/03/17 05:29:51;;;;;;;4.40;2.70;;;4.80;99.90;;;;;;5069631;28;20174;-71
2023/03/17 05:32:17;;;;;;;5.73;3.10;;;4.80;99.90;;;;;;5074209;28;20506;-71
2023/03/17 05:34:43;;;;;;;3.40;3.10;;;4.80;99.90;;;;;;5073899;28;20444;-72
2023/03/17 05:37:10;;;;;;;4.33;3.10;;;4.70;99.90;;;;;;5069598;28;20559;-71
2023/03/17 05:39:35;;;;;;;9.13;3.47;;;4.70;99.90;;;;;;5074091;28;20421;-71
2023/03/17 05:42:01;;;;;;;3.83;2.67;;;4.80;99.90;;;;;;5073861;28;20448;-71
2023/03/17 05:44:27;;;;;;;4.93;3.40;;;4.70;99.90;;;;;;5084403;28;20184;-71
2023/03/17 05:46:54;;;;;;;4.97;3.17;;;4.70;99.90;;;;;;5065506;28;20466;-71
2023/03/17 05:49:19;;;;;;;4.73;3.10;;;4.80;99.90;;;;;;5083765;28;20235;-71
2023/03/17 05:51:45;;;;;;;3.67;2.80;;;5.00;99.90;;;;;;5065949;28;20440;-73
2023/03/17 05:54:11;;;;;;;4.33;3.77;;;4.90;99.90;;;;;;5065427;28;20166;-72
2023/03/17 05:56:37;;;;;;;3.83;2.50;;;5.10;99.90;;;;;;5065244;28;20304;-72
2023/03/17 05:59:03;;;;;;;6.17;3.90;;;5.10;99.90;;;;;;5065442;28;20495;-71
2023/03/17 06:01:29;;;;;;;3.40;2.70;;;5.10;99.90;;;;;;5073282;28;20196;-71
2023/03/17 06:03:55;;;;;;;4.87;3.07;;;5.10;99.90;;;;;;5070614;28;20633;-72
2023/03/17 06:06:21;;;;;;;4.20;3.20;;;5.10;99.90;;;;;;5069918;28;20551;-72
2023/03/17 06:08:46;;;;;;;4.03;3.20;;;5.10;99.90;;;;;;5057630;28;20174;-72
2023/03/17 06:11:12;;;;;;;5.10;3.13;;;5.10;99.90;;;;;;5077354;28;20170;-72
2023/03/17 06:13:38;;;;;;;4.90;3.00;;;5.10;99.80;;;;;;5075107;28;20198;-72
2023/03/17 06:16:04;;;;;;;4.73;2.77;;;5.20;99.80;;;;;;5075670;28;20177;-71
2023/03/17 06:18:29;;;;;;;4.33;2.50;;;5.30;99.90;;;;;;5064898;28;20608;-73
2023/03/17 06:20:55;;;;;;;5.40;3.13;;;5.30;99.90;;;;;;5073569;28;20440;-72
2023/03/17 06:23:22;;;;;;;3.67;2.80;;;5.40;99.90;;;;;;5074954;28;20567;-74
2023/03/17 06:25:48;;;;;;;3.10;2.80;;;5.40;99.80;;;;;;5070150;28;20186;-72
2023/03/17 06:28:14;;;;;;;6.30;3.30;;;5.50;99.80;;;;;;5068432;28;20960;-71
2023/03/17 06:30:40;;;;;;;7.60;3.40;;;5.50;99.70;;;;;;5078932;28;20439;-72
2023/03/17 06:33:05;;;;;;;4.77;4.30;;;5.50;99.50;;;;;;5079887;28;20698;-72
2023/03/17 06:35:32;;;;;;;4.60;3.40;;;5.50;99.50;;;;;;5071600;28;20444;-71
2023/03/17 06:37:57;;;;;;;4.50;3.63;;;5.50;99.20;;;;;;5047119;28;20178;-71
2023/03/17 06:40:23;;;;;;;7.13;3.00;;;5.50;99.50;;;;;;5072070;28;20898;-71
2023/03/17 06:42:49;;;;;;;5.83;3.43;;;5.50;99.10;;;;;;5077461;28;20198;-72
2023/03/17 06:45:15;;;;;;;8.47;3.83;;;5.60;99.20;;;;;;5066468;28;20182;-73
2023/03/17 06:47:40;;;;;;;9.50;3.10;;;5.70;99.40;;;;;;5072327;28;20571;-71
2023/03/17 06:50:11;;;;;;;5.50;3.20;;;5.40;98.50;;;;;;5066172;28;20424;-71
2023/03/17 06:52:38;;;;;;;4.03;3.20;;;5.50;99.40;;;;;;5070705;28;20205;-71
2023/03/17 06:55:05;;;;;;;3.50;2.93;;;5.50;99.50;;;;;;5072104;28;20458;-72
2023/03/17 06:57:31;;;;;;;3.93;3.33;;;5.70;98.70;;;;;;5080115;28;20922;-71
2023/03/17 06:59:56;;;;;;;4.13;3.33;;;5.90;99.80;;;;;;5076985;28;20409;-71
2023/03/17 07:02:23;;;;;;;3.30;3.00;;;6.00;98.60;;;;;;5066169;28;20434;-71
2023/03/17 07:04:48;;;;;;;3.97;2.43;;;6.00;99.10;;;;;;5071977;28;20648;-72
2023/03/17 07:07:15;;;;;;;5.40;3.80;;;6.00;98.10;;;;;;5078080;28;20447;-72
2023/03/17 07:09:41;;;;;;;4.60;3.60;;;6.30;98.10;;;;;;5071916;28;20189;-71
2023/03/17 07:12:07;;;;;;;11.73;3.60;;;6.30;97.80;;;;;;5077323;28;20468;-72
2023/03/17 07:14:35;;;;;;;12.37;4.37;;;6.20;97.80;;;;;;5083492;28;20419;-73
2023/03/17 07:17:02;;;;;;;3.70;3.17;;;6.30;97.70;;;;;;5078950;28;20416;-71
2023/03/17 07:19:28;;;;;;;9.63;3.70;;;6.20;97.20;;;;;;5073221;28;20416;-72
2023/03/17 07:21:57;;;;;;;4.50;3.97;;;6.40;98.10;;;;;;5071843;28;20436;-71
2023/03/17 07:24:24;;;;;;;5.60;3.10;;;6.40;97.70;;;;;;5065931;28;20452;-72
2023/03/17 07:26:50;;;;;;;4.20;2.93;;;6.40;96.80;;;;;;5073809;28;20434;-74
2023/03/17 07:29:16;;;;;;;7.27;3.60;;;6.40;97.00;;;;;;5074482;28;20412;-75
2023/03/17 07:31:43;;;;;;;8.50;3.57;;;6.80;96.50;;;;;;5072799;28;20770;-69
2023/03/17 07:34:09;;;;;;;7.60;4.17;;;7.30;96.00;;;;;;5071271;28;20413;-69
2023/03/17 07:36:35;;;;;;;6.90;5.30;;;7.90;95.00;;;;;;5069007;28;20472;-71
2023/03/17 07:39:02;;;;;;;5.33;3.73;;;8.00;94.60;;;;;;5072043;28;20421;-73
2023/03/17 07:41:28;;;;;;;4.83;3.17;;;7.90;94.50;;;;;;5071293;28;20417;-77
2023/03/17 07:43:57;;;;;;;7.03;3.63;;;8.10;94.20;;;;;;5079928;28;20457;-73
2023/03/17 07:46:24;;;;;;;5.10;3.90;;;8.10;94.00;;;;;;5082037;28;20484;-73
2023/03/17 07:48:49;;;;;;;6.30;3.80;;;8.10;93.70;;;;;;5050991;28;20865;-72
2023/03/17 07:51:17;;;;;;;3.03;2.73;;;7.90;93.80;;;;;;5063617;28;20512;-74
2023/03/17 07:53:45;;;;;;;3.73;3.30;;;8.20;93.90;;;;;;5074470;28;20194;-73
2023/03/17 07:56:11;;;;;;;6.30;3.50;;;8.10;93.60;;;;;;5078783;28;20430;-73
2023/03/17 07:58:39;;;;;;;6.77;3.10;;;8.00;94.30;;;;;;5085784;28;20409;-73
2023/03/17 08:01:05;;;;;;;7.17;6.20;;;8.20;94.10;;;;;;5091670;28;20417;-74
2023/03/17 08:03:31;;;;;;;4.20;3.40;;;8.80;93.30;;;;;;5045088;28;20836;-73
2023/03/17 08:05:58;;;;;;;5.03;3.90;;;9.00;92.50;;;;;;5071188;28;20409;-73
2023/03/17 08:08:25;;;;;;;4.00;2.93;;;9.10;92.20;;;;;;5071086;28;20407;-72
2023/03/17 08:10:51;;;;;;;3.70;3.33;;;8.90;91.90;;;;;;5071052;28;20424;-73
2023/03/17 08:13:17;;;;;;;5.77;2.90;;;9.30;92.40;;;;;;5069432;28;20468;-73
2023/03/17 08:15:43;;;;;;;8.93;3.90;;;9.80;91.90;;;;;;5068401;28;20492;-74
2023/03/17 08:18:09;;;;;;;5.33;3.77;;;9.90;91.20;;;;;;5068223;28;20536;-73
2023/03/17 08:20:35;;;;;;;5.40;3.60;;;10.10;91.10;;;;;;5070490;28;20179;-73
2023/03/17 08:23:01;;;;;;;4.73;3.80;;;9.80;90.30;;;;;;5044245;28;20609;-72
2023/03/17 08:25:28;;;;;;;4.67;2.90;;;10.00;90.50;;;;;;5061849;28;20438;-72
2023/03/17 08:27:54;;;;;;;4.77;3.10;;;10.30;88.90;;;;;;5059003;28;20413;-73
2023/03/17 08:30:20;;;;;;;5.97;3.30;;;10.10;88.90;;;;;;5059782;28;20455;-72
2023/03/17 08:32:46;;;;;;;6.10;4.03;;;10.10;87.30;;;;;;5066305;28;21143;-73
2023/03/17 08:35:17;;;;;;;6.40;3.70;;;9.70;90.10;;;;;;5068096;28;20416;-74
2023/03/17 08:37:46;;;;;;;5.80;3.30;;;9.90;90.60;;;;;;5061198;28;21247;-73
2023/03/17 08:40:15;;;;;;;4.37;3.27;;;10.00;88.60;;;;;;5057708;28;20420;-72
2023/03/17 08:42:45;;;;;;;6.87;3.33;;;9.70;88.90;;;;;;5060513;28;20425;-72
2023/03/17 08:45:12;;;;;;;7.13;5.50;;;9.50;89.80;;;;;;5066041;28;20590;-73
2023/03/17 08:47:39;;;;;;;4.70;3.27;;;9.60;89.40;;;;;;5076084;28;20837;-72
2023/03/17 08:50:09;;;;;;;4.63;3.13;;;9.40;89.20;;;;;;5065729;28;20913;-72
2023/03/17 08:52:35;;;;;;;7.13;4.63;;;9.60;90.10;;;;;;5065802;28;20985;-72
2023/03/17 08:55:01;;;;;;;5.30;4.00;;;9.30;90.30;;;;;;5069239;28;20878;-74
2023/03/17 08:57:28;;;;;;;7.70;3.10;;;9.30;90.30;;;;;;5069545;28;20491;-72
2023/03/17 08:59:54;;;;;;;10.77;3.20;;;9.50;90.90;;;;;;5071252;28;20424;-74
2023/03/17 09:02:20;;;;;;;4.63;3.30;;;9.60;90.30;;;;;;5044789;28;20428;-74
2023/03/17 09:04:47;;;;;;;3.90;3.30;;;9.40;90.10;;;;;;5068098;28;20442;-74
2023/03/17 09:07:13;;;;;;;3.53;3.20;;;9.60;90.40;;;;;;5068796;28;20710;-73
2023/03/17 09:09:38;;;;;;;5.50;3.20;;;9.60;89.70;;;;;;5059237;28;20780;-72
2023/03/17 09:12:05;;;;;;;6.30;3.40;;;9.40;89.70;;;;;;5067925;28;20458;-72
2023/03/17 09:14:34;;;;;;;6.07;3.87;;;9.50;90.20;;;;;;5046952;28;20178;-70
2023/03/17 09:17:00;;;;;;;5.50;3.37;;;9.40;90.20;;;;;;5069122;28;20403;-73
2023/03/17 09:19:26;;;;;;;4.30;3.00;;;9.60;90.30;;;;;;5068614;28;20417;-73
2023/03/17 09:22:06;;;;;;;6.70;3.33;;;9.80;90.20;;;;;;5083354;28;20194;-77
2023/03/17 09:24:32;;;;;;;6.80;3.70;;;10.00;89.60;;;;;;5049706;28;20183;-77
2023/03/17 09:27:00;;;;;;;5.83;3.20;;;9.90;89.70;;;;;;5068569;28;20449;-74
2023/03/17 09:29:26;;;;;;;5.13;3.03;;;10.10;87.30;;;;;;5066217;28;20171;-72
2023/03/17 09:31:54;;;;;;;6.90;3.83;;;9.90;88.60;;;;;;5061321;28;20426;-74
2023/03/17 09:34:19;;;;;;;4.50;3.43;;;10.20;87.00;;;;;;5074502;28;20412;-72
2023/03/17 09:36:45;;;;;;;4.33;3.47;;;10.30;87.60;;;;;;5064599;28;20762;-72
2023/03/17 09:39:11;;;;;;;6.27;3.50;;;10.30;87.50;;;;;;5073035;28;20228;-72
2023/03/17 09:41:43;;;;;;;4.53;3.10;;;10.30;87.20;;;;;;5071659;28;20956;-72
2023/03/17 09:44:47;;;;;;;3.63;3.33;;;10.40;87.90;;;;;;5072637;28;20412;-73
2023/03/17 09:47:31;;;;;;;3.00;2.63;;;10.70;87.40;;;;;;5011003;28;20511;-73
2023/03/17 09:50:00;;;;;;;4.43;3.27;;;10.80;87.50;;;;;;5011099;28;20921;-73
2023/03/17 09:52:29;;;;;;;5.90;3.00;;;11.10;86.20;;;;;;5048687;28;20882;-74
2023/03/17 09:54:55;;;;;;;4.30;3.50;;;11.40;85.10;;;;;;5056103;28;20397;-74
2023/03/17 09:57:25;;;;;;;9.10;2.90;;;11.40;84.60;;;;;;5040551;28;20417;-74
2023/03/17 10:00:13;;;;;;;7.37;3.50;;;11.50;84.60;;;;;;5060234;28;20784;-75
2023/03/17 10:02:39;;;;;;;10.43;3.17;;;11.70;83.10;;;;;;5080316;28;20420;-72
2023/03/17 10:05:27;;;;;;;4.57;3.50;;;11.80;82.10;;;;;;5072650;28;20463;-73
2023/03/17 10:08:14;;;;;;;4.90;3.27;;;11.90;82.00;;;;;;5077781;28;20428;-74
2023/03/17 10:10:47;;;;;;;8.50;4.00;;;11.90;82.00;;;;;;5067686;28;20408;-73
2023/03/17 10:13:29;;;;;;;3.27;3.00;;;12.00;81.10;;;;;;5090549;22;20479;-67
2023/03/17 10:16:13;;;;;;;4.00;3.00;;;11.70;82.10;;;;;;5068550;28;20408;-69
2023/03/17 10:18:53;;;;;;;11.53;3.47;;;12.10;82.00;;;;;;5073760;28;20419;-68
2023/03/17 10:21:32;;;;;;;4.73;2.57;;;12.00;80.90;;;;;;5071919;28;20415;-67
2023/03/17 10:23:58;;;;;;;3.13;2.60;;;12.00;81.10;;;;;;5041930;28;20428;-67
2023/03/17 10:26:40;;;;;;;7.37;3.47;;;12.00;80.80;;;;;;5072194;28;20400;-68
2023/03/17 10:29:22;;;;;;;5.60;3.13;;;12.10;81.50;;;;;;5067749;28;20401;-68
2023/03/17 10:31:52;;;;;;;8.90;3.17;;;12.30;81.10;;;;;;5073435;28;20412;-67
2023/03/17 10:34:25;;;;;;;4.33;2.63;;;12.30;80.20;;;;;;5055502;28;20420;-68
2023/03/17 10:37:18;;;;;;;6.47;3.00;;;12.20;80.40;;;;;;5073914;28;20397;-67
2023/03/17 10:39:48;;;;;;;4.27;2.97;;;12.10;80.70;;;;;;5066614;28;20795;-67
2023/03/17 10:42:26;;;;;;;3.20;2.90;;;12.10;80.70;;;;;;5073929;28;20471;-67
2023/03/17 10:44:56;;;;;;;3.37;2.70;;;12.20;80.40;;;;;;5071907;28;20444;-67
2023/03/17 10:47:36;;;;;;;3.90;2.93;;;12.30;80.60;;;;;;5072601;28;20405;-67
2023/03/17 10:50:23;;;;;;;7.80;3.33;;;12.50;81.20;;;;;;5070783;28;20412;-67
2023/03/17 10:52:58;;;;;;;3.13;2.87;;;12.60;80.60;;;;;;5072354;28;20460;-67
2023/03/17 10:55:28;;;;;;;4.00;3.03;;;12.40;80.00;;;;;;5068724;28;20446;-67
2023/03/17 10:58:25;;;;;;;5.47;2.90;;;12.40;79.80;;;;;;5065279;28;20409;-67
2023/03/17 11:00:55;;;;;;;6.33;3.40;;;12.30;80.20;;;;;;5072938;28;20462;-67
2023/03/17 11:03:28;;;;;;;3.60;2.87;;;12.30;78.90;;;;;;5073364;28;20424;-68
2023/03/17 11:06:01;;;;;;;7.33;3.27;;;12.40;78.60;;;;;;5061423;28;20786;-67
2023/03/17 11:08:31;;;;;;;5.43;3.00;;;12.40;79.00;;;;;;5072662;28;20408;-66
2023/03/17 11:10:57;;;;;;;4.73;3.00;;;12.60;79.60;;;;;;5064856;28;20427;-68
2023/03/17 11:13:28;;;;;;;3.70;2.53;;;12.70;78.80;;;;;;5054058;28;20456;-68
2023/03/17 11:16:16;;;;;;;3.50;3.20;;;12.80;80.10;;;;;;5064386;28;20167;-67
2023/03/17 11:18:42;;;;;;;6.40;3.23;;;12.60;79.00;;;;;;5071997;28;20784;-68
2023/03/17 11:21:09;;;;;;;5.80;3.07;;;12.80;80.10;;;;;;5072043;28;20408;-67
2023/03/17 11:23:52;;;;;;;6.23;3.27;;;12.80;78.60;;;;;;5071800;28;20437;-67
2023/03/17 11:26:29;;;;;;;3.73;2.77;;;13.00;78.30;;;;;;5067309;28;20404;-67
2023/03/17 11:29:19;;;;;;;3.67;2.83;;;13.00;78.40;;;;;;5067047;28;20442;-66
2023/03/17 11:32:04;;;;;;;4.33;2.90;;;13.00;78.40;;;;;;5071786;28;20839;-68
2023/03/17 11:34:46;;;;;;;3.33;2.77;;;13.20;78.30;;;;;;5072376;28;20404;-67
2023/03/17 11:37:15;;;;;;;3.63;2.87;;;13.10;77.60;;;;;;5072073;28;20409;-68
2023/03/17 11:40:06;;;;;;;7.07;2.70;;;13.30;78.80;;;;;;5071744;28;20466;-72
2023/03/17 11:42:51;;;;;;;3.20;2.50;;;13.50;77.70;;;;;;5071830;28;20433;-69
2023/03/17 11:45:28;;;;;;;3.33;2.53;;;13.60;76.50;;;;;;5071768;28;20745;-68
2023/03/17 11:48:07;;;;;;;2.30;1.90;;;13.50;77.10;;;;;;5068962;28;20412;-68
2023/03/17 11:50:57;;;;;;;9.00;2.97;;;13.50;77.80;;;;;;5071659;28;20538;-67
2023/03/17 11:53:57;;;;;;;3.77;2.70;;;13.70;77.60;;;;;;5067557;28;20510;-68
2023/03/17 11:56:36;;;;;;;5.90;2.90;;;13.80;76.80;;;;;;5068725;28;20436;-67
2023/03/17 11:59:10;;;;;;;3.13;2.60;;;13.80;77.40;;;;;;5064215;28;20400;-66
2023/03/17 12:02:03;;;;;;;3.20;2.37;;;13.80;76.40;;;;;;5071457;28;20772;-67
2023/03/17 12:04:35;;;;;;;4.37;2.90;;;13.70;77.30;;;;;;5060944;28;20917;-68
2023/03/17 12:07:15;;;;;;;3.90;2.50;;;13.50;77.60;;;;;;5064274;28;20393;-67
2023/03/17 12:09:46;;;;;;;3.87;3.17;;;13.40;77.10;;;;;;5071716;28;20419;-68
2023/03/17 12:12:17;;;;;;;3.93;2.70;;;13.30;77.70;;;;;;5071270;28;20463;-68
2023/03/17 12:14:52;;;;;;;5.17;2.53;;;13.40;77.10;;;;;;5071224;28;20446;-67
2023/03/17 12:17:31;;;;;;;7.03;3.27;;;13.50;76.60;;;;;;5071532;28;20458;-68
2023/03/17 12:20:47;;;;;;;3.03;2.47;;;13.60;76.80;;;;;;5066415;28;20890;-68
2023/03/17 12:23:37;;;;;;;2.30;2.07;;;13.80;76.80;;;;;;4970658;28;20429;-66
2023/03/17 12:26:15;;;;;;;3.60;2.60;;;13.80;76.50;;;;;;4969866;28;20427;-67
2023/03/17 12:29:05;;;;;;;3.63;1.97;;;13.60;75.90;;;;;;5051577;28;20412;-67
2023/03/17 12:31:38;;;;;;;5.33;2.73;;;13.70;77.10;;;;;;5069711;28;20432;-67
2023/03/17 12:34:21;;;;;;;3.53;2.67;;;13.90;77.40;;;;;;5076000;28;20470;-67
2023/03/17 12:36:48;;;;;;;2.77;2.40;;;13.90;76.10;;;;;;5078252;28;20420;-67
2023/03/17 12:39:35;;;;;;;4.53;2.77;;;14.00;75.40;;;;;;5071346;28;20409;-68
2023/03/17 12:42:38;;;;;;;3.20;2.07;;;14.00;76.00;;;;;;5063865;28;20415;-67
2023/03/17 12:45:29;;;;;;;4.40;2.50;;;14.00;75.70;;;;;;5057531;28;20427;-68
2023/03/17 12:48:32;;;;;;;3.40;2.40;;;14.20;76.10;;;;;;5068607;28;20416;-67
2023/03/17 12:51:16;;;;;;;2.97;2.03;;;14.20;76.10;;;;;;5069235;28;20408;-67
2023/03/17 12:53:46;;;;;;;4.50;2.93;;;14.20;75.50;;;;;;5075344;28;20458;-68
2023/03/17 12:56:28;;;;;;;3.77;2.40;;;14.20;75.60;;;;;;5074804;28;20408;-68
2023/03/17 12:59:07;;;;;;;2.90;2.23;;;14.10;75.50;;;;;;5067190;28;20820;-68
2023/03/17 13:01:37;;;;;;;3.37;1.90;;;14.00;75.10;;;;;;5056673;28;20478;-68
2023/03/17 13:04:05;;;;;;;4.87;2.13;;;13.90;76.00;;;;;;5074912;28;20515;-67
2023/03/17 13:06:41;;;;;;;2.73;2.23;;;14.00;74.60;;;;;;5074600;28;20411;-69
2023/03/17 13:09:30;;;;;;;2.53;2.00;;;14.10;74.30;;;;;;5074415;28;20408;-68